createdAt,value
2019-06-07T00:01:03.211Z,22.00
2019-06-07T00:03:33.414Z,22.00
2019-06-07T00:06:07.109Z,22.00
2019-06-07T00:08:37.358Z,21.90
2019-06-07T00:11:10.321Z,21.90
2019-06-07T00:13:43.063Z,21.90
2019-06-07T00:16:22.741Z,21.90
2019-06-07T00:18:52.277Z,21.90
2019-06-07T00:22:12.885Z,21.90
2019-06-07T00:24:02.242Z,21.90
2019-06-07T00:26:32.566Z,21.90
2019-06-07T00:29:13.842Z,21.80
2019-06-07T00:31:42.522Z,21.80
2019-06-07T00:34:14.018Z,21.80
2019-06-07T00:36:51.253Z,21.70
2019-06-07T00:39:26.039Z,21.70
2019-06-07T00:42:00.598Z,21.70
2019-06-07T00:44:34.122Z,21.60
2019-06-07T00:47:05.658Z,21.60
2019-06-07T00:49:41.770Z,21.60
2019-06-07T00:53:05.623Z,21.50
2019-06-07T00:54:50.682Z,21.50
2019-06-07T00:57:26.146Z,21.50
2019-06-07T00:59:58.268Z,21.50
2019-06-07T01:02:31.364Z,21.40
2019-06-07T01:05:04.711Z,21.40
2019-06-07T01:07:42.120Z,21.30
2019-06-07T01:10:16.532Z,21.30
2019-06-07T01:12:52.418Z,21.30
2019-06-07T01:15:29.937Z,21.30
2019-06-07T01:18:33.605Z,21.20
2019-06-07T01:20:32.666Z,21.20
2019-06-07T01:23:51.637Z,21.20
2019-06-07T01:25:42.495Z,21.20
2019-06-07T01:28:16.561Z,21.10
2019-06-07T01:30:49.631Z,21.10
2019-06-07T01:33:39.672Z,21.10
2019-06-07T01:35:57.511Z,21.10
2019-06-07T01:38:30.123Z,21.10
2019-06-07T01:41:00.858Z,21.00
2019-06-07T01:43:34.521Z,21.00
2019-06-07T01:46:05.125Z,21.00
2019-06-07T01:48:49.388Z,21.00
2019-06-07T01:51:18.962Z,20.90
2019-06-07T01:54:47.457Z,20.90
2019-06-07T01:56:31.890Z,20.90
2019-06-07T01:59:06.094Z,20.90
2019-06-07T02:01:39.445Z,20.90
2019-06-07T02:04:16.155Z,20.80
2019-06-07T02:06:48.416Z,20.80
2019-06-07T02:09:23.497Z,20.80
2019-06-07T02:11:54.179Z,20.80
2019-06-07T02:14:29.884Z,20.70
2019-06-07T02:17:01.898Z,20.70
2019-06-07T02:19:36.762Z,20.70
2019-06-07T02:22:07.579Z,20.70
2019-06-07T02:24:38.179Z,20.60
2019-06-07T02:27:08.929Z,20.60
2019-06-07T02:29:39.570Z,20.60
2019-06-07T02:32:09.988Z,20.60
2019-06-07T02:34:40.605Z,20.50
2019-06-07T02:37:16.596Z,20.50
2019-06-07T02:39:50.346Z,20.50
2019-06-07T02:42:30.823Z,20.40
2019-06-07T02:45:05.616Z,20.40
2019-06-07T02:47:38.549Z,20.40
2019-06-07T02:50:20.287Z,20.40
2019-06-07T02:52:51.221Z,20.40
2019-06-07T02:55:24.882Z,20.40
2019-06-07T02:57:56.459Z,20.30
2019-06-07T03:01:07.767Z,20.30
2019-06-07T03:03:28.923Z,20.30
2019-06-07T03:06:01.210Z,20.40
2019-06-07T03:08:36.583Z,20.40
2019-06-07T03:11:14.913Z,20.40
2019-06-07T03:13:49.019Z,20.30
2019-06-07T03:16:28.748Z,20.30
2019-06-07T03:19:11.334Z,20.30
2019-06-07T03:21:43.356Z,20.30
2019-06-07T03:24:21.607Z,20.30
2019-06-07T03:29:28.473Z,20.30
2019-06-07T03:32:01.026Z,20.30
2019-06-07T03:34:38.559Z,20.30
2019-06-07T03:37:04.727Z,20.30
2019-06-07T03:39:39.357Z,20.30
2019-06-07T03:42:08.916Z,20.30
2019-06-07T03:44:42.747Z,20.30
2019-06-07T03:47:15.608Z,20.30
2019-06-07T03:49:46.398Z,20.30
2019-06-07T03:52:19.342Z,20.30
2019-06-07T03:54:54.615Z,20.40
2019-06-07T03:58:27.542Z,20.40
2019-06-07T04:00:10.263Z,20.40
2019-06-07T04:02:42.560Z,20.40
2019-06-07T04:05:15.241Z,20.40
2019-06-07T04:07:51.602Z,20.50
2019-06-07T04:10:44.658Z,20.50
2019-06-07T04:13:01.566Z,20.50
2019-06-07T04:15:34.453Z,20.60
2019-06-07T04:18:09.438Z,20.60
2019-06-07T04:20:41.759Z,20.60
2019-06-07T04:23:27.680Z,20.60
2019-06-07T04:25:45.858Z,20.70
2019-06-07T04:28:18.975Z,20.70
2019-06-07T04:30:50.584Z,20.70
2019-06-07T04:33:21.471Z,20.70
2019-06-07T04:35:57.308Z,20.70
2019-06-07T04:38:39.220Z,20.70
2019-06-07T04:41:08.038Z,20.70
2019-06-07T04:43:42.872Z,20.80
2019-06-07T04:46:16.471Z,20.80
2019-06-07T04:48:50.648Z,20.80
2019-06-07T04:51:24.701Z,20.90
2019-06-07T04:53:55.710Z,20.90
2019-06-07T04:56:26.645Z,20.90
2019-06-07T04:59:01.903Z,20.90
2019-06-07T05:01:34.435Z,20.90
2019-06-07T05:04:07.434Z,21.00
2019-06-07T05:06:42.429Z,21.00
2019-06-07T05:09:16.785Z,21.00
2019-06-07T05:11:50.426Z,21.00
2019-06-07T05:14:22.102Z,21.10
2019-06-07T05:16:53.004Z,21.10
2019-06-07T05:19:25.370Z,21.10
2019-06-07T05:22:04.411Z,21.10
2019-06-07T05:24:31.432Z,21.20
2019-06-07T05:27:05.472Z,21.20
2019-06-07T05:29:41.626Z,21.30
2019-06-07T05:32:21.982Z,21.30
2019-06-07T05:34:57.338Z,21.30
2019-06-07T05:37:33.461Z,21.40
2019-06-07T05:40:06.625Z,21.40
2019-06-07T05:42:41.210Z,21.40
2019-06-07T05:45:18.299Z,21.50
2019-06-07T05:47:54.914Z,21.50
2019-06-07T05:50:39.145Z,21.50
2019-06-07T05:53:00.900Z,21.50
2019-06-07T05:55:32.651Z,21.60
2019-06-07T05:58:07.229Z,21.60
2019-06-07T06:00:41.598Z,21.70
2019-06-07T06:03:15.827Z,21.70
2019-06-07T06:05:54.931Z,21.70
2019-06-07T06:08:27.685Z,21.80
2019-06-07T06:11:02.312Z,21.80
2019-06-07T06:13:34.395Z,21.80
2019-06-07T06:16:08.253Z,21.90
2019-06-07T06:18:45.741Z,21.90
2019-06-07T06:21:19.381Z,22.00
2019-06-07T06:23:50.722Z,22.00
2019-06-07T06:26:20.162Z,22.00
2019-06-07T06:28:54.759Z,22.10
2019-06-07T06:31:26.389Z,22.10
2019-06-07T06:34:01.726Z,22.10
2019-06-07T06:36:32.561Z,22.20
2019-06-07T06:39:04.529Z,22.20
2019-06-07T06:41:46.270Z,22.20
2019-06-07T06:44:07.429Z,22.20
2019-06-07T06:46:44.838Z,22.30
2019-06-07T06:49:13.367Z,22.30
2019-06-07T06:51:47.841Z,22.40
2019-06-07T06:54:39.480Z,22.40
2019-06-07T06:57:17.206Z,22.40
2019-06-07T06:59:39.360Z,22.40
2019-06-07T07:02:03.260Z,22.50
2019-06-07T07:04:35.201Z,22.50
2019-06-07T07:07:05.838Z,22.50
2019-06-07T07:09:37.907Z,22.50
2019-06-07T07:12:12.572Z,22.50
2019-06-07T07:14:43.009Z,22.60
2019-06-07T07:17:14.414Z,22.60
2019-06-07T07:19:48.449Z,22.60
2019-06-07T07:22:20.610Z,22.60
2019-06-07T07:24:53.391Z,22.60
2019-06-07T07:27:24.322Z,22.60
2019-06-07T07:30:34.387Z,22.70
2019-06-07T07:32:28.950Z,22.70
2019-06-07T07:35:00.858Z,22.70
2019-06-07T07:37:31.855Z,22.70
2019-06-07T07:40:54.837Z,22.70
2019-06-07T07:42:34.446Z,22.70
2019-06-07T07:45:11.922Z,22.80
2019-06-07T07:48:05.491Z,22.80
2019-06-07T07:50:16.255Z,22.80
2019-06-07T07:52:49.080Z,22.80
2019-06-07T07:55:22.589Z,22.80
2019-06-07T07:58:01.131Z,22.80
2019-06-07T08:03:04.476Z,22.90
2019-06-07T08:05:43.065Z,22.90
2019-06-07T08:08:08.332Z,22.90
2019-06-07T08:10:39.930Z,22.90
2019-06-07T08:13:27.689Z,23.00
2019-06-07T08:15:43.095Z,23.00
2019-06-07T08:18:13.808Z,23.00
2019-06-07T08:21:04.653Z,23.00
2019-06-07T08:23:16.402Z,23.00
2019-06-07T08:25:46.853Z,23.00
2019-06-07T08:28:21.773Z,23.00
2019-06-07T08:30:58.386Z,23.10
2019-06-07T08:33:26.895Z,23.10
2019-06-07T08:36:10.435Z,23.10
2019-06-07T08:38:46.996Z,23.10
2019-06-07T08:41:12.346Z,23.10
2019-06-07T08:43:44.598Z,23.10
2019-06-07T08:46:15.151Z,23.10
2019-06-07T08:48:45.965Z,23.10
2019-06-07T08:51:16.265Z,23.10
2019-06-07T08:54:02.726Z,23.10
2019-06-07T08:56:25.565Z,23.20
2019-06-07T08:59:03.036Z,23.20
2019-06-07T09:01:31.778Z,23.20
2019-06-07T09:04:09.919Z,23.20
2019-06-07T09:07:02.461Z,23.20
2019-06-07T09:09:12.797Z,23.20
2019-06-07T09:11:44.133Z,23.30
2019-06-07T09:14:15.962Z,23.30
2019-06-07T09:16:49.480Z,23.30
2019-06-07T09:19:19.740Z,23.30
2019-06-07T09:21:50.182Z,23.30
2019-06-07T09:24:20.401Z,23.30
2019-06-07T09:26:51.546Z,23.30
2019-06-07T09:29:22.286Z,23.30
2019-06-07T09:31:53.868Z,23.30
2019-06-07T09:34:26.006Z,23.30
2019-06-07T09:37:02.942Z,23.40
2019-06-07T09:39:30.732Z,23.40
2019-06-07T09:42:09.823Z,23.40
2019-06-07T09:44:35.788Z,23.40
2019-06-07T09:47:22.383Z,23.50
2019-06-07T09:49:43.063Z,23.50
2019-06-07T09:52:14.063Z,23.50
2019-06-07T09:57:18.269Z,23.50
2019-06-07T09:59:50.243Z,23.60
2019-06-07T10:02:22.318Z,23.60
2019-06-07T10:04:54.695Z,23.60
2019-06-07T10:07:31.824Z,23.60
2019-06-07T10:10:12.430Z,23.60
2019-06-07T10:12:35.583Z,23.60
2019-06-07T10:15:10.082Z,23.60
2019-06-07T10:17:41.148Z,23.60
2019-06-07T10:20:12.613Z,23.60
2019-06-07T10:22:43.850Z,23.60
2019-06-07T10:25:17.959Z,23.70
2019-06-07T10:27:51.865Z,23.70
2019-06-07T10:30:24.149Z,23.70
2019-06-07T10:32:55.074Z,23.70
2019-06-07T10:35:28.678Z,23.70
2019-06-07T10:38:00.228Z,23.70
2019-06-07T10:40:31.591Z,23.70
2019-06-07T10:43:05.065Z,23.70
2019-06-07T10:45:36.323Z,23.70
2019-06-07T10:48:07.637Z,23.80
2019-06-07T10:50:38.609Z,23.80
2019-06-07T10:53:12.589Z,23.80
2019-06-07T10:55:43.657Z,23.80
2019-06-07T10:58:14.350Z,23.80
2019-06-07T11:00:45.338Z,23.80
2019-06-07T11:03:17.497Z,23.80
2019-06-07T11:05:48.854Z,23.70
2019-06-07T11:08:19.164Z,23.80
2019-06-07T11:10:51.647Z,23.70
2019-06-07T11:13:22.053Z,23.70
2019-06-07T11:15:54.044Z,23.70
2019-06-07T11:18:24.419Z,23.70
2019-06-07T11:20:55.406Z,23.70
2019-06-07T11:23:27.554Z,23.70
2019-06-07T11:25:58.616Z,23.70
2019-06-07T11:28:31.946Z,23.70
2019-06-07T11:31:02.749Z,23.70
2019-06-07T11:33:34.352Z,23.70
2019-06-07T11:36:06.662Z,23.80
2019-06-07T11:38:38.149Z,23.80
2019-06-07T11:41:11.632Z,23.70
2019-06-07T11:43:42.165Z,23.80
2019-06-07T11:46:18.848Z,23.80
2019-06-07T11:48:53.747Z,23.80
2019-06-07T11:51:28.266Z,23.80
2019-06-07T11:54:02.115Z,23.80
2019-06-07T11:56:35.455Z,23.80
2019-06-07T11:59:11.745Z,23.90
2019-06-07T12:01:42.822Z,23.80
2019-06-07T12:04:14.012Z,23.90
2019-06-07T12:06:45.358Z,23.90
2019-06-07T12:09:16.859Z,23.90
2019-06-07T12:11:48.252Z,23.90
2019-06-07T12:14:19.830Z,24.00
2019-06-07T12:16:50.862Z,24.00
2019-06-07T12:19:21.173Z,24.00
2019-06-07T12:21:52.267Z,24.00
2019-06-07T12:24:25.561Z,24.00
2019-06-07T12:26:56.480Z,24.00
2019-06-07T12:29:28.491Z,24.00
2019-06-07T12:32:02.621Z,24.00
2019-06-07T12:34:32.794Z,24.00
2019-06-07T12:37:04.618Z,24.00
2019-06-07T12:39:38.454Z,24.00
2019-06-07T12:42:12.729Z,24.00
2019-06-07T12:44:44.115Z,24.00
2019-06-07T12:47:16.881Z,24.00
2019-06-07T12:49:47.713Z,24.00
2019-06-07T12:52:25.452Z,24.00
2019-06-07T12:54:56.436Z,24.00
2019-06-07T12:57:31.490Z,24.10
2019-06-07T13:00:02.551Z,24.00
2019-06-07T13:02:37.637Z,24.00
2019-06-07T13:05:10.571Z,24.10
2019-06-07T13:07:42.640Z,24.10
2019-06-07T13:10:20.082Z,24.10
2019-06-07T13:12:52.376Z,24.10
2019-06-07T13:15:25.758Z,24.10
2019-06-07T13:17:55.244Z,24.10
2019-06-07T13:20:26.346Z,24.10
2019-06-07T13:23:01.440Z,24.10
2019-06-07T13:25:45.501Z,24.10
2019-06-07T13:28:04.805Z,24.10
2019-06-07T13:30:36.471Z,24.10
2019-06-07T13:33:07.090Z,24.10
2019-06-07T13:35:38.031Z,24.10
2019-06-07T13:38:13.358Z,24.10
2019-06-07T13:40:44.421Z,24.10
2019-06-07T13:43:14.678Z,24.10
2019-06-07T13:45:46.343Z,24.10
2019-06-07T13:48:17.083Z,24.10
2019-06-07T13:50:52.320Z,24.20
2019-06-07T13:53:22.744Z,24.20
2019-06-07T13:55:53.991Z,24.20
2019-06-07T13:58:30.115Z,24.30
2019-06-07T14:01:00.885Z,24.20
2019-06-07T14:03:35.369Z,24.20
2019-06-07T14:06:06.138Z,24.20
2019-06-07T14:08:37.401Z,24.20
2019-06-07T14:11:08.529Z,24.20
2019-06-07T14:13:41.837Z,24.10
2019-06-07T14:16:12.992Z,24.10
2019-06-07T14:18:44.090Z,24.10
2019-06-07T14:21:15.262Z,24.00
2019-06-07T14:23:51.362Z,24.00
2019-06-07T14:26:21.624Z,24.00
2019-06-07T14:28:53.583Z,24.00
2019-06-07T14:31:30.251Z,23.90
2019-06-07T14:34:08.058Z,23.90
2019-06-07T14:36:38.790Z,23.90
2019-06-07T14:39:09.866Z,23.90
2019-06-07T14:42:09.109Z,23.90
2019-06-07T14:44:55.193Z,23.90
2019-06-07T14:47:41.116Z,23.90
2019-06-07T14:50:24.187Z,24.00
2019-06-07T14:53:05.328Z,24.00
2019-06-07T14:55:46.038Z,24.00
2019-06-07T14:58:23.397Z,24.10
2019-06-07T15:00:54.093Z,24.10
2019-06-07T15:03:26.376Z,24.20
2019-06-07T15:05:57.759Z,24.20
2019-06-07T15:08:33.015Z,24.20
2019-06-07T15:11:04.320Z,24.20
2019-06-07T15:13:37.719Z,24.20
2019-06-07T15:16:16.457Z,24.20
2019-06-07T15:18:54.723Z,24.20
2019-06-07T15:21:48.370Z,24.20
2019-06-07T15:24:37.111Z,24.20
2019-06-07T15:27:25.294Z,24.20
2019-06-07T15:30:16.786Z,24.20
2019-06-07T15:33:05.120Z,24.20
2019-06-07T15:35:37.763Z,24.10
2019-06-07T15:38:15.588Z,24.10
2019-06-07T15:40:46.978Z,24.10
2019-06-07T15:43:20.282Z,24.10
2019-06-07T15:45:51.149Z,24.20
2019-06-07T15:48:24.190Z,24.20
2019-06-07T15:50:55.339Z,24.20
2019-06-07T15:53:26.743Z,24.20
2019-06-07T15:55:57.884Z,24.20
2019-06-07T15:58:28.827Z,24.20
2019-06-07T16:01:02.668Z,24.30
2019-06-07T16:03:35.686Z,24.30
2019-06-07T16:06:06.700Z,24.30
2019-06-07T16:08:38.620Z,24.30
2019-06-07T16:11:09.966Z,24.20
2019-06-07T16:13:43.728Z,24.20
2019-06-07T16:16:14.772Z,24.30
2019-06-07T16:18:47.174Z,24.30
2019-06-07T16:21:18.847Z,24.30
2019-06-07T16:23:52.944Z,24.30
2019-06-07T16:26:25.899Z,24.30
2019-06-07T16:29:00.572Z,24.30
2019-06-07T16:31:30.743Z,24.30
2019-06-07T16:34:03.559Z,24.30
2019-06-07T16:36:36.619Z,24.20
2019-06-07T16:39:09.816Z,24.20
2019-06-07T16:41:44.719Z,24.20
2019-06-07T16:44:16.346Z,24.10
2019-06-07T16:46:48.844Z,24.10
2019-06-07T16:49:20.475Z,24.10
2019-06-07T16:51:51.642Z,24.10
2019-06-07T16:54:24.602Z,24.10
2019-06-07T16:56:56.668Z,24.10
2019-06-07T16:59:28.006Z,24.10
2019-06-07T17:02:00.803Z,24.10
2019-06-07T17:04:31.639Z,24.10
2019-06-07T17:07:08.829Z,24.10
2019-06-07T17:09:45.337Z,24.10
2019-06-07T17:12:15.306Z,24.10
2019-06-07T17:14:49.133Z,24.10
2019-06-07T17:17:23.108Z,24.10
2019-06-07T17:19:53.808Z,24.00
2019-06-07T17:22:25.936Z,24.10
2019-06-07T17:24:58.401Z,24.10
2019-06-07T17:27:31.611Z,24.10
2019-06-07T17:30:01.994Z,24.10
2019-06-07T17:32:48.443Z,24.10
2019-06-07T17:35:10.022Z,24.00
2019-06-07T17:37:43.208Z,24.00
2019-06-07T17:40:13.539Z,24.00
2019-06-07T17:42:47.051Z,24.00
2019-06-07T17:45:18.313Z,23.90
2019-06-07T17:47:55.343Z,23.90
2019-06-07T17:50:27.325Z,23.90
2019-06-07T17:52:58.083Z,23.90
2019-06-07T17:55:30.450Z,23.90
2019-06-07T17:58:01.836Z,23.90
2019-06-07T18:00:48.769Z,23.90
2019-06-07T18:03:20.280Z,23.80
2019-06-07T18:05:56.318Z,23.80
2019-06-07T18:08:28.902Z,23.80
2019-06-07T18:10:59.257Z,23.80
2019-06-07T18:13:30.270Z,23.80
2019-06-07T18:16:04.179Z,23.80
2019-06-07T18:18:38.432Z,23.80
2019-06-07T18:21:10.059Z,23.80
2019-06-07T18:23:43.671Z,23.80
2019-06-07T18:26:18.097Z,23.80
2019-06-07T18:28:49.122Z,23.70
2019-06-07T18:31:22.534Z,23.70
2019-06-07T18:33:55.235Z,23.70
2019-06-07T18:36:46.850Z,23.70
2019-06-07T18:39:21.278Z,23.70
2019-06-07T18:41:53.339Z,23.70
2019-06-07T18:44:29.369Z,23.70
2019-06-07T18:47:09.785Z,23.70
2019-06-07T18:49:43.255Z,23.70
2019-06-07T18:52:31.615Z,23.60
2019-06-07T18:55:02.075Z,23.60
2019-06-07T18:57:35.906Z,23.50
2019-06-07T19:00:08.110Z,23.50
2019-06-07T19:02:45.625Z,23.40
2019-06-07T19:05:18.238Z,23.40
2019-06-07T19:07:50.340Z,23.40
2019-06-07T19:10:23.606Z,23.30
2019-06-07T19:12:55.270Z,23.30
2019-06-07T19:15:30.186Z,23.20
2019-06-07T19:18:01.139Z,23.20
2019-06-07T19:20:32.176Z,23.10
2019-06-07T19:23:07.915Z,23.10
2019-06-07T19:25:39.990Z,23.00
2019-06-07T19:28:12.115Z,23.00
2019-06-07T19:30:42.439Z,22.90
2019-06-07T19:33:13.723Z,22.90
2019-06-07T19:35:44.412Z,22.80
2019-06-07T19:38:17.054Z,22.80
2019-06-07T19:40:47.347Z,22.80
2019-06-07T19:43:18.027Z,22.70
2019-06-07T19:45:52.087Z,22.60
2019-06-07T19:48:24.971Z,22.60
2019-06-07T19:50:55.294Z,22.60
2019-06-07T19:53:29.507Z,22.50
2019-06-07T19:56:01.424Z,22.50
2019-06-07T19:58:33.287Z,22.50
2019-06-07T20:01:05.234Z,22.40
2019-06-07T20:03:42.762Z,22.40
2019-06-07T20:06:17.136Z,22.30
2019-06-07T20:08:51.335Z,22.30
2019-06-07T20:11:22.185Z,22.30
2019-06-07T20:14:03.047Z,22.30
2019-06-07T20:16:34.295Z,22.30
2019-06-07T20:19:09.052Z,22.30
2019-06-07T20:21:40.152Z,22.40
2019-06-07T20:24:24.869Z,22.40
2019-06-07T20:26:42.966Z,22.40
2019-06-07T20:29:25.893Z,22.30
2019-06-07T20:31:49.513Z,22.30
2019-06-07T20:34:20.594Z,22.30
2019-06-07T20:36:50.939Z,22.30
2019-06-07T20:39:28.714Z,22.40
2019-06-07T20:42:01.287Z,22.50
2019-06-07T20:44:32.330Z,22.50
2019-06-07T20:47:08.644Z,22.50
2019-06-07T20:49:43.118Z,22.60
2019-06-07T20:52:13.445Z,22.60
2019-06-07T20:54:44.421Z,22.60
2019-06-07T20:57:16.715Z,22.50
2019-06-07T20:59:48.242Z,22.40
2019-06-07T21:02:22.426Z,22.20
2019-06-07T21:04:58.949Z,22.20
2019-06-07T21:07:30.595Z,22.10
2019-06-07T21:10:08.031Z,22.00
2019-06-07T21:12:43.595Z,21.90
2019-06-07T21:15:19.335Z,21.80
2019-06-07T21:17:51.994Z,21.80
2019-06-07T21:20:25.120Z,21.70
2019-06-07T21:22:56.606Z,21.60
2019-06-07T21:25:30.908Z,21.60
2019-06-07T21:28:05.188Z,21.60
2019-06-07T21:30:37.253Z,21.50
2019-06-07T21:33:13.292Z,21.50
2019-06-07T21:35:43.841Z,21.50
2019-06-07T21:38:18.061Z,21.50
2019-06-07T21:40:48.375Z,21.50
2019-06-07T21:43:20.962Z,21.50
2019-06-07T21:46:04.374Z,21.40
2019-06-07T21:48:32.470Z,21.40
2019-06-07T21:51:02.861Z,21.30
2019-06-07T21:53:39.686Z,21.30
2019-06-07T21:56:11.231Z,21.30
2019-06-07T21:58:45.040Z,21.20
2019-06-07T22:01:24.436Z,21.20
2019-06-07T22:04:00.833Z,21.20
2019-06-07T22:06:32.023Z,21.20
2019-06-07T22:09:07.878Z,21.20
2019-06-07T22:11:38.707Z,21.20
2019-06-07T22:14:12.523Z,21.20
2019-06-07T22:16:46.802Z,21.30
2019-06-07T22:19:24.342Z,21.30
2019-06-07T22:22:02.476Z,21.40
2019-06-07T22:24:32.999Z,21.40
2019-06-07T22:27:05.251Z,21.50
2019-06-07T22:29:35.981Z,21.50
2019-06-07T22:32:06.827Z,21.50
2019-06-07T22:34:37.362Z,21.50
2019-06-07T22:37:11.287Z,21.50
2019-06-07T22:39:48.794Z,21.50
2019-06-07T22:42:23.931Z,21.40
2019-06-07T22:44:55.576Z,21.40
2019-06-07T22:47:27.150Z,21.40
2019-06-07T22:50:02.138Z,21.40
2019-06-07T22:52:33.110Z,21.40
2019-06-07T22:55:03.386Z,21.40
2019-06-07T22:57:54.188Z,21.40
2019-06-07T23:00:25.826Z,21.40
2019-06-07T23:03:00.010Z,21.30
2019-06-07T23:05:31.459Z,21.30
2019-06-07T23:08:08.770Z,21.20
2019-06-07T23:10:41.822Z,21.20
2019-06-07T23:13:17.710Z,21.20
2019-06-07T23:15:52.807Z,21.20
2019-06-07T23:18:23.470Z,21.20
2019-06-07T23:21:16.308Z,21.20
2019-06-07T23:23:46.465Z,21.20
2019-06-07T23:26:18.318Z,21.20
2019-06-07T23:29:00.095Z,21.20
2019-06-07T23:31:36.526Z,21.20
2019-06-07T23:34:10.634Z,21.20
2019-06-07T23:36:41.614Z,21.10
2019-06-07T23:39:13.051Z,21.00
2019-06-07T23:41:46.966Z,21.10
2019-06-07T23:44:17.275Z,21.10
2019-06-07T23:46:49.254Z,21.10
2019-06-07T23:49:22.375Z,21.10
2019-06-07T23:51:58.419Z,21.10
2019-06-07T23:54:38.186Z,21.10
2019-06-07T23:57:12.181Z,21.10
2019-06-07T23:59:44.906Z,21.10
